Brusett, Montana
Current Conditions -  °F | °C
As of 1:53 PM on Saturday 20 Dec 2014 (Local Time) from KGGW Reporting Station
Clear Clear  
Wind Chill: 39°   Ceiling: Unl
Heat Index: 45°   Visibility: 10mi
Dew Point: 25°   Wind: 12mph
Humidity: 46%   Direction: 280°W
Pressure: 29.77"   Gusts: NA
Location:  47.43°N, 107.27°W
Report Text: KGGW 202053Z AUTO 28010KT 10SM CLR 07/M04 A2977 RMK AO2 SLP103 T00721039 56012
Loading
Personal Weather Stations






























Interactive Weather Map New forecast layout! Learn more

10-Day Weather Forecast

Advertisements
Track Severe Weather on mobile